Airfield :
LOGIN :

Register | Disclaimer

   EN    FR    IT 

 










Legend :    VFR   Marginal VFR   IFR   Intensive IFR   Very Intensive IFR
Visi :
Ceiling :
>= 8 km
>= 3000ft
5 to 8 km
1000 to 3000 ft
1500m to 5 km
500 to 1000 ft
800 to 1500m
200 to 500 ft
< 800m
< 200 ft
Symbols :   Thunderstorms  Fog  Heavy snow  Heavy precipitations  Wind > 20 kt
SIGMETs :     Misc.  Thunderstorms  Icing  Turbulence  Mountain Waves  Volcanic Ashes






- Airport Elevation : 7 ft
- IATA code : XHE


LFTH - Hyeres

CURRENT METAR :
  • 142130Z AUTO 03002KT CAVOK 20/16 Q1013 NOSIG

EXPIRED METARs :
  • 142100Z AUTO 00000KT CAVOK 23/17 Q1013 NOSIG
  • 142030Z AUTO 18002KT CAVOK 24/17 Q1013 NOSIG
  • 142000Z AUTO 15003KT CAVOK 24/17 Q1013 NOSIG
  • 141930Z AUTO 14003KT CAVOK 24/16 Q1013 NOSIG
  • 141900Z AUTO VRB03KT CAVOK 24/16 Q1013 NOSIG

TAF TAF LFTH
Valid from the 14 at 21:00 until the 15 at 21:00 UTC


142000Z 1421/1521 17007KT CAVOK
BECMG 1509/1511 24010KT
BECMG 1512/1514 28020G30KT
BECMG 1518/1520 27010G20KT



MET'MAP, your aeronautical weather chart ! - Copyright ORBIFLY December 2007 - Disclaimer

ORBIFLY MET'MAP TEAM :

Programming & Development : Alexandra Zaïnal
Concept & original design : Baudouin d'Aumeries
Assistance for programming : Marc-Olivier Méhu
Technical & hardware support : Manuel Goepfert

Contact : metmap@orbifly.com




SOURCES & CREDITS :

   NOAA